sensor_id;sensor_type;location;lat;lon;timestamp;pressure;altitude;pressure_sealevel;temperature;humidity
76547;BME280;65390;53.014;8.886;2022-11-25T00:01:22;101193.75;;;4.37;100.00
76547;BME280;65390;53.014;8.886;2022-11-25T00:03:50;101174.13;;;4.16;100.00
76547;BME280;65390;53.014;8.886;2022-11-25T00:06:27;101212.56;;;4.31;100.00
76547;BME280;65390;53.014;8.886;2022-11-25T00:09:04;101180.75;;;4.03;100.00
76547;BME280;65390;53.014;8.886;2022-11-25T00:11:34;101192.94;;;4.09;100.00
76547;BME280;65390;53.014;8.886;2022-11-25T00:14:02;101191.16;;;4.09;100.00
76547;BME280;65390;53.014;8.886;2022-11-25T00:16:29;101184.69;;;4.18;100.00
76547;BME280;65390;53.014;8.886;2022-11-25T00:18:56;101197.69;;;4.25;100.00
76547;BME280;65390;53.014;8.886;2022-11-25T00:21:26;101213.19;;;4.38;100.00
76547;BME280;65390;53.014;8.886;2022-11-25T00:23:55;101189.84;;;4.22;100.00
76547;BME280;65390;53.014;8.886;2022-11-25T00:26:24;101173.88;;;4.24;100.00
76547;BME280;65390;53.014;8.886;2022-11-25T00:28:51;101216.16;;;4.55;100.00
76547;BME280;65390;53.014;8.886;2022-11-25T00:31:20;101209.00;;;4.57;100.00
76547;BME280;65390;53.014;8.886;2022-11-25T00:33:47;101208.72;;;4.65;100.00
76547;BME280;65390;53.014;8.886;2022-11-25T00:38:46;101183.41;;;4.30;100.00
76547;BME280;65390;53.014;8.886;2022-11-25T00:41:13;101172.34;;;4.17;100.00
76547;BME280;65390;53.014;8.886;2022-11-25T00:43:58;101204.63;;;4.30;100.00
76547;BME280;65390;53.014;8.886;2022-11-25T00:46:44;101201.44;;;4.20;100.00
76547;BME280;65390;53.014;8.886;2022-11-25T00:49:10;101211.75;;;4.28;100.00
76547;BME280;65390;53.014;8.886;2022-11-25T00:51:37;101179.78;;;4.06;100.00
76547;BME280;65390;53.014;8.886;2022-11-25T00:54:04;101198.97;;;4.14;100.00
76547;BME280;65390;53.014;8.886;2022-11-25T00:56:30;101174.88;;;3.93;100.00
76547;BME280;65390;53.014;8.886;2022-11-25T00:58:57;101185.69;;;3.87;100.00
76547;BME280;65390;53.014;8.886;2022-11-25T01:01:24;101179.72;;;3.81;100.00
76547;BME280;65390;53.014;8.886;2022-11-25T01:03:51;101178.81;;;3.82;100.00
76547;BME280;65390;53.014;8.886;2022-11-25T01:06:19;101190.94;;;3.89;100.00
76547;BME280;65390;53.014;8.886;2022-11-25T01:08:45;101191.69;;;3.92;100.00
76547;BME280;65390;53.014;8.886;2022-11-25T01:11:14;101191.63;;;3.96;100.00
76547;BME280;65390;53.014;8.886;2022-11-25T01:13:42;101189.75;;;3.99;100.00
76547;BME280;65390;53.014;8.886;2022-11-25T01:16:16;101169.72;;;3.89;100.00
76547;BME280;65390;53.014;8.886;2022-11-25T01:18:44;101168.88;;;3.88;100.00
76547;BME280;65390;53.014;8.886;2022-11-25T01:23:39;101166.91;;;3.93;100.00
76547;BME280;65390;53.014;8.886;2022-11-25T01:26:09;101166.91;;;3.93;100.00
76547;BME280;65390;53.014;8.886;2022-11-25T01:28:39;101198.13;;;4.13;100.00
76547;BME280;65390;53.014;8.886;2022-11-25T01:31:13;101168.59;;;3.98;100.00
76547;BME280;65390;53.014;8.886;2022-11-25T01:33:41;101199.00;;;4.12;100.00
76547;BME280;65390;53.014;8.886;2022-11-25T01:36:12;101180.09;;;3.97;100.00
76547;BME280;65390;53.014;8.886;2022-11-25T01:38:39;101177.53;;;3.93;100.00
76547;BME280;65390;53.014;8.886;2022-11-25T01:41:08;101168.97;;;3.85;100.00
76547;BME280;65390;53.014;8.886;2022-11-25T01:43:35;101173.34;;;3.86;100.00
76547;BME280;65390;53.014;8.886;2022-11-25T01:46:26;101203.13;;;3.94;100.00
76547;BME280;65390;53.014;8.886;2022-11-25T01:48:59;101186.75;;;3.82;100.00
76547;BME280;65390;53.014;8.886;2022-11-25T01:51:43;101164.16;;;3.70;100.00
76547;BME280;65390;53.014;8.886;2022-11-25T01:54:15;101172.75;;;3.77;100.00
76547;BME280;65390;53.014;8.886;2022-11-25T01:56:50;101166.81;;;3.70;100.00
76547;BME280;65390;53.014;8.886;2022-11-25T01:59:22;101156.34;;;3.66;100.00
76547;BME280;65390;53.014;8.886;2022-11-25T02:01:49;101179.78;;;3.79;100.00
76547;BME280;65390;53.014;8.886;2022-11-25T02:04:16;101126.97;;;3.45;100.00
76547;BME280;65390;53.014;8.886;2022-11-25T02:06:52;101161.59;;;3.67;100.00
76547;BME280;65390;53.014;8.886;2022-11-25T02:09:20;101118.25;;;3.42;100.00
76547;BME280;65390;53.014;8.886;2022-11-25T02:11:48;101132.94;;;3.52;100.00
76547;BME280;65390;53.014;8.886;2022-11-25T02:14:16;101143.25;;;3.61;100.00
76547;BME280;65390;53.014;8.886;2022-11-25T02:16:44;101157.13;;;3.69;100.00
76547;BME280;65390;53.014;8.886;2022-11-25T02:19:24;101142.41;;;3.59;100.00
76547;BME280;65390;53.014;8.886;2022-11-25T02:22:01;101139.88;;;3.56;100.00
76547;BME280;65390;53.014;8.886;2022-11-25T02:24:53;101161.56;;;3.69;100.00
76547;BME280;65390;53.014;8.886;2022-11-25T02:27:21;101147.59;;;3.63;100.00
76547;BME280;65390;53.014;8.886;2022-11-25T02:29:49;101147.88;;;3.54;100.00
76547;BME280;65390;53.014;8.886;2022-11-25T02:32:20;101144.19;;;3.58;100.00
76547;BME280;65390;53.014;8.886;2022-11-25T02:34:47;101158.00;;;3.70;100.00
76547;BME280;65390;53.014;8.886;2022-11-25T02:37:18;101171.81;;;3.79;100.00
76547;BME280;65390;53.014;8.886;2022-11-25T02:40:00;101144.94;;;3.63;100.00
76547;BME280;65390;53.014;8.886;2022-11-25T02:42:28;101135.38;;;3.58;100.00
76547;BME280;65390;53.014;8.886;2022-11-25T02:44:55;101130.09;;;3.58;100.00
76547;BME280;65390;53.014;8.886;2022-11-25T02:47:22;101141.22;;;3.69;100.00
76547;BME280;65390;53.014;8.886;2022-11-25T02:49:48;101119.63;;;3.53;100.00
76547;BME280;65390;53.014;8.886;2022-11-25T02:52:15;101120.59;;;3.51;100.00
76547;BME280;65390;53.014;8.886;2022-11-25T02:54:41;101128.31;;;3.58;100.00
76547;BME280;65390;53.014;8.886;2022-11-25T02:57:08;101124.94;;;3.53;100.00
76547;BME280;65390;53.014;8.886;2022-11-25T02:59:35;101140.34;;;3.69;100.00
76547;BME280;65390;53.014;8.886;2022-11-25T03:02:02;101170.03;;;3.80;100.00
76547;BME280;65390;53.014;8.886;2022-11-25T03:04:30;101167.41;;;3.80;100.00
76547;BME280;65390;53.014;8.886;2022-11-25T03:06:56;101143.91;;;3.68;100.00
76547;BME280;65390;53.014;8.886;2022-11-25T03:09:22;101136.19;;;3.61;100.00
76547;BME280;65390;53.014;8.886;2022-11-25T03:11:49;101125.63;;;3.60;100.00
76547;BME280;65390;53.014;8.886;2022-11-25T03:14:35;101124.78;;;3.58;100.00
76547;BME280;65390;53.014;8.886;2022-11-25T03:17:01;101119.31;;;3.64;100.00
76547;BME280;65390;53.014;8.886;2022-11-25T03:19:27;101123.75;;;3.63;100.00
76547;BME280;65390;53.014;8.886;2022-11-25T03:21:54;101143.72;;;3.74;100.00
76547;BME280;65390;53.014;8.886;2022-11-25T03:24:21;101134.91;;;3.73;100.00
76547;BME280;65390;53.014;8.886;2022-11-25T03:26:47;101120.13;;;3.66;100.00
76547;BME280;65390;53.014;8.886;2022-11-25T03:29:14;101154.91;;;3.83;100.00
76547;BME280;65390;53.014;8.886;2022-11-25T03:31:40;101110.59;;;3.60;100.00
76547;BME280;65390;53.014;8.886;2022-11-25T03:34:07;101115.78;;;3.63;100.00
76547;BME280;65390;53.014;8.886;2022-11-25T03:36:33;101109.53;;;3.66;100.00
76547;BME280;65390;53.014;8.886;2022-11-25T03:39:00;101122.34;;;3.80;100.00
76547;BME280;65390;53.014;8.886;2022-11-25T03:41:26;101096.28;;;3.66;100.00
76547;BME280;65390;53.014;8.886;2022-11-25T03:43:53;101089.94;;;3.70;100.00
76547;BME280;65390;53.014;8.886;2022-11-25T03:46:20;101110.66;;;3.85;100.00
76547;BME280;65390;53.014;8.886;2022-11-25T03:48:46;101153.78;;;4.17;100.00
76547;BME280;65390;53.014;8.886;2022-11-25T03:51:13;101134.66;;;4.07;100.00
76547;BME280;65390;53.014;8.886;2022-11-25T03:53:41;101130.28;;;4.06;100.00
76547;BME280;65390;53.014;8.886;2022-11-25T03:56:07;101123.06;;;4.10;100.00
76547;BME280;65390;53.014;8.886;2022-11-25T03:58:37;101142.09;;;4.22;100.00
76547;BME280;65390;53.014;8.886;2022-11-25T04:01:03;101118.38;;;4.18;100.00
76547;BME280;65390;53.014;8.886;2022-11-25T04:03:32;101149.69;;;4.33;100.00
76547;BME280;65390;53.014;8.886;2022-11-25T04:05:58;101159.38;;;4.34;100.00
76547;BME280;65390;53.014;8.886;2022-11-25T04:08:25;101136.72;;;4.24;100.00
76547;BME280;65390;53.014;8.886;2022-11-25T04:10:52;101149.81;;;4.29;100.00
76547;BME280;65390;53.014;8.886;2022-11-25T04:13:20;101126.41;;;4.16;100.00
76547;BME280;65390;53.014;8.886;2022-11-25T04:15:48;101106.44;;;4.05;100.00
76547;BME280;65390;53.014;8.886;2022-11-25T04:18:16;101119.53;;;4.09;100.00
76547;BME280;65390;53.014;8.886;2022-11-25T04:20:43;101150.97;;;4.21;100.00
76547;BME280;65390;53.014;8.886;2022-11-25T04:23:10;101123.94;;;4.10;100.00
76547;BME280;65390;53.014;8.886;2022-11-25T04:25:38;101136.03;;;4.19;100.00
76547;BME280;65390;53.014;8.886;2022-11-25T04:28:05;101121.91;;;4.18;100.00
76547;BME280;65390;53.014;8.886;2022-11-25T04:30:32;101119.44;;;4.12;100.00
76547;BME280;65390;53.014;8.886;2022-11-25T04:32:59;101116.53;;;4.20;100.00
76547;BME280;65390;53.014;8.886;2022-11-25T04:35:26;101140.47;;;4.43;100.00
76547;BME280;65390;53.014;8.886;2022-11-25T04:37:52;101115.34;;;4.29;100.00
76547;BME280;65390;53.014;8.886;2022-11-25T04:40:19;101143.00;;;4.46;100.00
76547;BME280;65390;53.014;8.886;2022-11-25T04:42:46;101137.94;;;4.40;100.00
76547;BME280;65390;53.014;8.886;2022-11-25T04:45:14;101129.22;;;4.37;100.00
76547;BME280;65390;53.014;8.886;2022-11-25T04:47:42;101125.41;;;4.44;100.00
76547;BME280;65390;53.014;8.886;2022-11-25T04:50:13;101155.81;;;4.60;100.00
76547;BME280;65390;53.014;8.886;2022-11-25T04:52:40;101137.66;;;4.48;100.00
76547;BME280;65390;53.014;8.886;2022-11-25T04:55:09;101127.19;;;4.43;100.00
76547;BME280;65390;53.014;8.886;2022-11-25T04:57:35;101131.53;;;4.46;100.00
76547;BME280;65390;53.014;8.886;2022-11-25T05:00:03;101135.84;;;4.50;100.00
76547;BME280;65390;53.014;8.886;2022-11-25T05:02:30;101150.38;;;4.63;100.00
76547;BME280;65390;53.014;8.886;2022-11-25T05:04:56;101150.19;;;4.69;100.00
76547;BME280;65390;53.014;8.886;2022-11-25T05:07:25;101131.91;;;4.60;100.00
76547;BME280;65390;53.014;8.886;2022-11-25T05:09:52;101138.84;;;4.64;100.00
76547;BME280;65390;53.014;8.886;2022-11-25T05:12:21;101157.84;;;4.77;100.00
76547;BME280;65390;53.014;8.886;2022-11-25T05:14:49;101140.44;;;4.70;100.00
76547;BME280;65390;53.014;8.886;2022-11-25T05:17:18;101142.28;;;4.68;100.00
76547;BME280;65390;53.014;8.886;2022-11-25T05:19:46;101142.28;;;4.66;100.00
76547;BME280;65390;53.014;8.886;2022-11-25T05:22:14;101169.97;;;4.84;100.00
76547;BME280;65390;53.014;8.886;2022-11-25T05:24:41;101159.53;;;4.79;100.00
76547;BME280;65390;53.014;8.886;2022-11-25T05:27:10;101155.31;;;4.74;100.00
76547;BME280;65390;53.014;8.886;2022-11-25T05:29:37;101142.41;;;4.63;100.00
76547;BME280;65390;53.014;8.886;2022-11-25T05:32:05;101142.22;;;4.69;100.00
76547;BME280;65390;53.014;8.886;2022-11-25T05:34:36;101135.31;;;4.64;100.00
76547;BME280;65390;53.014;8.886;2022-11-25T05:37:03;101136.09;;;4.67;100.00
76547;BME280;65390;53.014;8.886;2022-11-25T05:39:30;101143.03;;;4.71;100.00
76547;BME280;65390;53.014;8.886;2022-11-25T05:41:56;101134.88;;;4.76;100.00
76547;BME280;65390;53.014;8.886;2022-11-25T05:44:22;101133.47;;;4.66;100.00
76547;BME280;65390;53.014;8.886;2022-11-25T05:46:49;101120.91;;;4.71;100.00
76547;BME280;65390;53.014;8.886;2022-11-25T05:49:17;101127.91;;;4.73;100.00
76547;BME280;65390;53.014;8.886;2022-11-25T05:51:44;101118.47;;;4.65;100.00
76547;BME280;65390;53.014;8.886;2022-11-25T05:54:11;101136.50;;;4.80;100.00
76547;BME280;65390;53.014;8.886;2022-11-25T05:56:39;101132.84;;;4.82;100.00
76547;BME280;65390;53.014;8.886;2022-11-25T05:59:06;101141.25;;;4.95;100.00
76547;BME280;65390;53.014;8.886;2022-11-25T06:01:32;101138.75;;;4.91;100.00
76547;BME280;65390;53.014;8.886;2022-11-25T06:04:00;101135.31;;;4.89;100.00
76547;BME280;65390;53.014;8.886;2022-11-25T06:06:27;101116.31;;;4.76;100.00
76547;BME280;65390;53.014;8.886;2022-11-25T06:08:54;101117.16;;;4.76;100.00
76547;BME280;65390;53.014;8.886;2022-11-25T06:11:21;101132.09;;;4.79;100.00
76547;BME280;65390;53.014;8.886;2022-11-25T06:13:48;101155.44;;;4.94;100.00
76547;BME280;65390;53.014;8.886;2022-11-25T06:16:17;101139.09;;;4.81;100.00
76547;BME280;65390;53.014;8.886;2022-11-25T06:18:44;101133.97;;;4.77;100.00
76547;BME280;65390;53.014;8.886;2022-11-25T06:21:11;101126.63;;;4.83;100.00
76547;BME280;65390;53.014;8.886;2022-11-25T06:23:38;101168.50;;;5.00;100.00
76547;BME280;65390;53.014;8.886;2022-11-25T06:26:30;101142.34;;;4.90;100.00
76547;BME280;65390;53.014;8.886;2022-11-25T06:28:57;101143.66;;;4.78;100.00
76547;BME280;65390;53.014;8.886;2022-11-25T06:31:24;101146.38;;;4.76;100.00
76547;BME280;65390;53.014;8.886;2022-11-25T06:33:52;101151.28;;;4.87;100.00
76547;BME280;65390;53.014;8.886;2022-11-25T06:36:20;101175.44;;;5.04;100.00
76547;BME280;65390;53.014;8.886;2022-11-25T06:38:56;101143.47;;;4.82;100.00
76547;BME280;65390;53.014;8.886;2022-11-25T06:41:22;101148.84;;;4.81;100.00
76547;BME280;65390;53.014;8.886;2022-11-25T06:43:49;101171.63;;;4.88;100.00
76547;BME280;65390;53.014;8.886;2022-11-25T06:46:17;101154.03;;;4.84;100.00
76547;BME280;65390;53.014;8.886;2022-11-25T06:48:47;101148.78;;;4.82;100.00
76547;BME280;65390;53.014;8.886;2022-11-25T06:51:14;101161.84;;;4.89;100.00
76547;BME280;65390;53.014;8.886;2022-11-25T06:53:41;101156.81;;;4.81;100.00
76547;BME280;65390;53.014;8.886;2022-11-25T06:56:15;101155.13;;;4.78;100.00
76547;BME280;65390;53.014;8.886;2022-11-25T06:58:44;101149.72;;;4.81;100.00
76547;BME280;65390;53.014;8.886;2022-11-25T07:01:20;101183.41;;;5.04;100.00
76547;BME280;65390;53.014;8.886;2022-11-25T07:03:49;101162.66;;;4.91;100.00
76547;BME280;65390;53.014;8.886;2022-11-25T07:06:15;101177.63;;;4.93;100.00
76547;BME280;65390;53.014;8.886;2022-11-25T07:08:42;101155.19;;;4.77;100.00
76547;BME280;65390;53.014;8.886;2022-11-25T07:11:15;101174.16;;;4.91;100.00
76547;BME280;65390;53.014;8.886;2022-11-25T07:13:42;101146.25;;;4.79;100.00
76547;BME280;65390;53.014;8.886;2022-11-25T07:16:10;101174.84;;;4.96;100.00
76547;BME280;65390;53.014;8.886;2022-11-25T07:18:38;101174.16;;;4.91;100.00
76547;BME280;65390;53.014;8.886;2022-11-25T07:21:15;101205.91;;;5.18;100.00
76547;BME280;65390;53.014;8.886;2022-11-25T07:23:44;101190.28;;;5.10;100.00
76547;BME280;65390;53.014;8.886;2022-11-25T07:26:20;101197.88;;;5.21;100.00
76547;BME280;65390;53.014;8.886;2022-11-25T07:28:48;101163.59;;;4.90;100.00
76547;BME280;65390;53.014;8.886;2022-11-25T07:31:31;101185.22;;;5.04;100.00
76547;BME280;65390;53.014;8.886;2022-11-25T07:34:00;101201.16;;;5.02;100.00
76547;BME280;65390;53.014;8.886;2022-11-25T07:36:28;101205.69;;;5.00;100.00
76547;BME280;65390;53.014;8.886;2022-11-25T07:39:00;101193.50;;;4.95;100.00
76547;BME280;65390;53.014;8.886;2022-11-25T07:41:27;101208.06;;;5.08;100.00
76547;BME280;65390;53.014;8.886;2022-11-25T07:43:57;101228.09;;;5.16;100.00
76547;BME280;65390;53.014;8.886;2022-11-25T07:48:57;101212.72;;;5.01;100.00
76547;BME280;65390;53.014;8.886;2022-11-25T07:51:34;101251.44;;;5.32;100.00
76547;BME280;65390;53.014;8.886;2022-11-25T07:54:03;101224.56;;;5.16;100.00
76547;BME280;65390;53.014;8.886;2022-11-25T07:56:33;101207.09;;;5.10;100.00
76547;BME280;65390;53.014;8.886;2022-11-25T07:59:00;101216.72;;;5.13;100.00
76547;BME280;65390;53.014;8.886;2022-11-25T08:01:27;101227.97;;;5.21;100.00
76547;BME280;65390;53.014;8.886;2022-11-25T08:03:53;101214.66;;;5.21;100.00
76547;BME280;65390;53.014;8.886;2022-11-25T08:06:22;101226.72;;;5.30;100.00
76547;BME280;65390;53.014;8.886;2022-11-25T08:08:49;101258.63;;;5.53;100.00
76547;BME280;65390;53.014;8.886;2022-11-25T08:11:23;101240.50;;;5.41;100.00
76547;BME280;65390;53.014;8.886;2022-11-25T08:13:54;101230.88;;;5.37;100.00
76547;BME280;65390;53.014;8.886;2022-11-25T08:16:22;101243.09;;;5.42;100.00
76547;BME280;65390;53.014;8.886;2022-11-25T08:18:49;101236.72;;;5.23;100.00
76547;BME280;65390;53.014;8.886;2022-11-25T08:21:17;101255.28;;;5.48;100.00
76547;BME280;65390;53.014;8.886;2022-11-25T08:23:44;101277.75;;;5.63;100.00
76547;BME280;65390;53.014;8.886;2022-11-25T08:26:17;101289.75;;;5.73;100.00
76547;BME280;65390;53.014;8.886;2022-11-25T08:28:44;101301.84;;;5.82;100.00
76547;BME280;65390;53.014;8.886;2022-11-25T08:31:24;101266.00;;;5.68;100.00
76547;BME280;65390;53.014;8.886;2022-11-25T08:33:53;101260.88;;;5.64;100.00
76547;BME280;65390;53.014;8.886;2022-11-25T08:36:21;101306.75;;;5.94;100.00
76547;BME280;65390;53.014;8.886;2022-11-25T08:38:50;101299.50;;;5.97;100.00
76547;BME280;65390;53.014;8.886;2022-11-25T08:41:29;101282.94;;;5.89;100.00
76547;BME280;65390;53.014;8.886;2022-11-25T08:43:58;101279.41;;;5.89;100.00
76547;BME280;65390;53.014;8.886;2022-11-25T08:46:28;101291.47;;;5.99;100.00
76547;BME280;65390;53.014;8.886;2022-11-25T08:48:55;101273.47;;;6.05;100.00
76547;BME280;65390;53.014;8.886;2022-11-25T08:51:26;101289.94;;;6.15;100.00
76547;BME280;65390;53.014;8.886;2022-11-25T08:53:54;101274.84;;;6.16;100.00
76547;BME280;65390;53.014;8.886;2022-11-25T08:56:23;101286.66;;;6.30;100.00
76547;BME280;65390;53.014;8.886;2022-11-25T08:58:50;101281.88;;;6.39;100.00
76547;BME280;65390;53.014;8.886;2022-11-25T09:01:18;101294.19;;;6.41;100.00
76547;BME280;65390;53.014;8.886;2022-11-25T09:03:47;101282.38;;;6.26;100.00
76547;BME280;65390;53.014;8.886;2022-11-25T09:06:15;101292.41;;;6.20;100.00
76547;BME280;65390;53.014;8.886;2022-11-25T09:08:42;101298.91;;;6.13;100.00
76547;BME280;65390;53.014;8.886;2022-11-25T09:11:10;101282.75;;;5.95;100.00
76547;BME280;65390;53.014;8.886;2022-11-25T09:13:36;101316.63;;;6.14;100.00
76547;BME280;65390;53.014;8.886;2022-11-25T09:16:03;101291.72;;;5.93;100.00
76547;BME280;65390;53.014;8.886;2022-11-25T09:18:30;101294.25;;;5.96;100.00
76547;BME280;65390;53.014;8.886;2022-11-25T09:20:58;101284.59;;;5.93;100.00
76547;BME280;65390;53.014;8.886;2022-11-25T09:23:25;101302.66;;;6.07;100.00
76547;BME280;65390;53.014;8.886;2022-11-25T09:25:56;101302.59;;;6.09;100.00
76547;BME280;65390;53.014;8.886;2022-11-25T09:28:25;101298.91;;;6.13;100.00
76547;BME280;65390;53.014;8.886;2022-11-25T09:30:51;101312.56;;;6.25;100.00
76547;BME280;65390;53.014;8.886;2022-11-25T09:33:19;101285.28;;;6.20;100.00
76547;BME280;65390;53.014;8.886;2022-11-25T09:35:45;101302.56;;;6.32;100.00
76547;BME280;65390;53.014;8.886;2022-11-25T09:38:13;101312.09;;;6.38;100.00
76547;BME280;65390;53.014;8.886;2022-11-25T09:44:25;101340.31;;;6.63;100.00
76547;BME280;65390;53.014;8.886;2022-11-25T09:50:28;101345.22;;;6.74;100.00
76547;BME280;65390;53.014;8.886;2022-11-25T09:53:15;101326.13;;;6.63;100.00
76547;BME280;65390;53.014;8.886;2022-11-25T09:55:46;101320.19;;;6.56;100.00
76547;BME280;65390;53.014;8.886;2022-11-25T09:58:36;101322.53;;;6.64;100.00
76547;BME280;65390;53.014;8.886;2022-11-25T10:01:16;101324.22;;;6.66;100.00
76547;BME280;65390;53.014;8.886;2022-11-25T10:03:52;101351.50;;;6.93;100.00
76547;BME280;65390;53.014;8.886;2022-11-25T10:06:24;101307.69;;;6.58;100.00
76547;BME280;65390;53.014;8.886;2022-11-25T10:09:03;101327.63;;;6.70;100.00
76547;BME280;65390;53.014;8.886;2022-11-25T10:11:53;101333.97;;;6.88;100.00
76547;BME280;65390;53.014;8.886;2022-11-25T10:14:41;101351.19;;;7.01;100.00
76547;BME280;65390;53.014;8.886;2022-11-25T10:20:24;101332.13;;;6.90;100.00
76547;BME280;65390;53.014;8.886;2022-11-25T10:23:00;101313.19;;;6.96;100.00
76547;BME280;65390;53.014;8.886;2022-11-25T10:25:46;101335.38;;;7.17;100.00
76547;BME280;65390;53.014;8.886;2022-11-25T10:28:31;101346.88;;;7.39;100.00
76547;BME280;65390;53.014;8.886;2022-11-25T10:33:43;101363.00;;;7.56;100.00
76547;BME280;65390;53.014;8.886;2022-11-25T10:36:20;101342.66;;;7.34;100.00
76547;BME280;65390;53.014;8.886;2022-11-25T10:39:18;101362.78;;;7.61;100.00
76547;BME280;65390;53.014;8.886;2022-11-25T10:42:21;101325.97;;;7.49;100.00
76547;BME280;65390;53.014;8.886;2022-11-25T10:44:48;101333.50;;;7.60;100.00
76547;BME280;65390;53.014;8.886;2022-11-25T10:48:05;101364.19;;;7.88;100.00
76547;BME280;65390;53.014;8.886;2022-11-25T10:53:28;101345.88;;;7.81;100.00
76547;BME280;65390;53.014;8.886;2022-11-25T10:56:16;101337.63;;;7.85;100.00
76547;BME280;65390;53.014;8.886;2022-11-25T10:58:43;101344.53;;;7.91;100.00
76547;BME280;65390;53.014;8.886;2022-11-25T11:01:22;101348.41;;;8.03;100.00
76547;BME280;65390;53.014;8.886;2022-11-25T11:04:18;101371.31;;;8.27;100.00
76547;BME280;65390;53.014;8.886;2022-11-25T11:06:48;101315.50;;;7.83;100.00
76547;BME280;65390;53.014;8.886;2022-11-25T11:09:40;101381.91;;;8.29;100.00
76547;BME280;65390;53.014;8.886;2022-11-25T11:12:17;101337.22;;;7.95;100.00
76547;BME280;65390;53.014;8.886;2022-11-25T11:14:45;101383.03;;;8.23;100.00
76547;BME280;65390;53.014;8.886;2022-11-25T11:17:33;101381.91;;;8.29;100.00
76547;BME280;65390;53.014;8.886;2022-11-25T11:22:38;101359.34;;;8.36;100.00
76547;BME280;65390;53.014;8.886;2022-11-25T11:25:31;101367.19;;;8.39;100.00
76547;BME280;65390;53.014;8.886;2022-11-25T11:27:59;101347.03;;;8.32;100.00
76547;BME280;65390;53.014;8.886;2022-11-25T11:30:28;101339.53;;;8.40;100.00
76547;BME280;65390;53.014;8.886;2022-11-25T11:33:24;101350.47;;;8.71;100.00
76547;BME280;65390;53.014;8.886;2022-11-25T11:42:24;101372.81;;;8.88;100.00
76547;BME280;65390;53.014;8.886;2022-11-25T11:50:32;101385.16;;;8.54;100.00
76547;BME280;65390;53.014;8.886;2022-11-25T11:53:35;101419.72;;;8.76;100.00
76547;BME280;65390;53.014;8.886;2022-11-25T11:56:21;101414.13;;;8.63;100.00
76547;BME280;65390;53.014;8.886;2022-11-25T12:08:04;101410.19;;;9.06;100.00
76547;BME280;65390;53.014;8.886;2022-11-25T12:10:52;101406.19;;;8.98;100.00
76547;BME280;65390;53.014;8.886;2022-11-25T12:13:58;101405.38;;;8.96;100.00
76547;BME280;65390;53.014;8.886;2022-11-25T12:16:34;101397.53;;;8.74;100.00
76547;BME280;65390;53.014;8.886;2022-11-25T12:19:29;101422.66;;;8.89;100.00
76547;BME280;65390;53.014;8.886;2022-11-25T12:22:35;101383.91;;;8.80;100.00
76547;BME280;65390;53.014;8.886;2022-11-25T12:25:15;101386.84;;;8.74;100.00
76547;BME280;65390;53.014;8.886;2022-11-25T12:27:52;101413.09;;;9.02;100.00
76547;BME280;65390;53.014;8.886;2022-11-25T12:30:22;101419.47;;;8.99;100.00
76547;BME280;65390;53.014;8.886;2022-11-25T12:33:18;101421.91;;;9.04;100.00
76547;BME280;65390;53.014;8.886;2022-11-25T12:36:09;101406.78;;;8.86;100.00
76547;BME280;65390;53.014;8.886;2022-11-25T12:39:04;101403.59;;;8.77;100.00
76547;BME280;65390;53.014;8.886;2022-11-25T12:41:52;101412.41;;;8.79;100.00
76547;BME280;65390;53.014;8.886;2022-11-25T12:45:14;101441.22;;;8.92;100.00
76547;BME280;65390;53.014;8.886;2022-11-25T12:47:32;101409.44;;;8.86;100.00
76547;BME280;65390;53.014;8.886;2022-11-25T12:49:58;101427.56;;;8.98;100.00
76547;BME280;65390;53.014;8.886;2022-11-25T12:55:19;101451.63;;;9.34;100.00
76547;BME280;65390;53.014;8.886;2022-11-25T13:16:05;101432.94;;;9.50;100.00
76547;BME280;65390;53.014;8.886;2022-11-25T13:18:38;101458.38;;;9.58;100.00
76547;BME280;65390;53.014;8.886;2022-11-25T13:21:08;101439.72;;;9.57;100.00
76547;BME280;65390;53.014;8.886;2022-11-25T13:32:02;101431.38;;;9.46;100.00
76547;BME280;65390;53.014;8.886;2022-11-25T13:34:33;101465.78;;;9.71;100.00
76547;BME280;65390;53.014;8.886;2022-11-25T13:37:02;101479.88;;;9.74;100.00
76547;BME280;65390;53.014;8.886;2022-11-25T13:40:51;101469.16;;;9.74;100.00
76547;BME280;65390;53.014;8.886;2022-11-25T13:43:00;101458.38;;;9.58;100.00
76547;BME280;65390;53.014;8.886;2022-11-25T13:45:35;101459.16;;;9.60;100.00
76547;BME280;65390;53.014;8.886;2022-11-25T13:50:48;101459.00;;;9.46;100.00
76547;BME280;65390;53.014;8.886;2022-11-25T13:53:25;101473.06;;;9.50;100.00
76547;BME280;65390;53.014;8.886;2022-11-25T14:01:40;101473.94;;;9.50;100.00
76547;BME280;65390;53.014;8.886;2022-11-25T14:04:12;101513.53;;;9.61;100.00
76547;BME280;65390;53.014;8.886;2022-11-25T14:07:01;101520.09;;;9.73;100.00
76547;BME280;65390;53.014;8.886;2022-11-25T14:16:10;101525.97;;;9.45;100.00
76547;BME280;65390;53.014;8.886;2022-11-25T14:24:52;101521.75;;;9.22;100.00
76547;BME280;65390;53.014;8.886;2022-11-25T14:27:27;101500.78;;;9.13;100.00
76547;BME280;65390;53.014;8.886;2022-11-25T14:30:05;101513.28;;;9.12;100.00
76547;BME280;65390;53.014;8.886;2022-11-25T14:35:32;101523.84;;;9.15;100.00
76547;BME280;65390;53.014;8.886;2022-11-25T14:38:09;101533.63;;;9.33;100.00
76547;BME280;65390;53.014;8.886;2022-11-25T14:41:02;101555.72;;;9.56;100.00
76547;BME280;65390;53.014;8.886;2022-11-25T14:43:38;101550.38;;;9.56;100.00
76547;BME280;65390;53.014;8.886;2022-11-25T14:46:20;101547.00;;;9.52;100.00
76547;BME280;65390;53.014;8.886;2022-11-25T14:49:04;101542.94;;;9.44;100.00
76547;BME280;65390;53.014;8.886;2022-11-25T14:51:37;101563.72;;;9.38;100.00
76547;BME280;65390;53.014;8.886;2022-11-25T14:54:08;101538.75;;;9.21;100.00
76547;BME280;65390;53.014;8.886;2022-11-25T14:56:36;101545.03;;;9.20;100.00